createdAt,value
2023-05-01T00:01:19.472Z,43.08
2023-05-01T00:04:23.572Z,42.98
2023-05-01T00:07:29.483Z,43.05
2023-05-01T00:10:32.336Z,42.90
2023-05-01T00:13:36.653Z,43.14
2023-05-01T00:16:39.538Z,43.00
2023-05-01T00:19:42.338Z,43.10
2023-05-01T00:22:45.219Z,42.93
2023-05-01T00:25:48.037Z,42.95
2023-05-01T00:28:52.172Z,43.03
2023-05-01T00:31:55.429Z,42.89
2023-05-01T00:34:58.779Z,42.79
2023-05-01T00:38:01.511Z,42.88
2023-05-01T00:41:04.290Z,42.81
2023-05-01T00:44:08.472Z,43.00
2023-05-01T00:47:11.284Z,42.87
2023-05-01T00:50:14.312Z,43.04
2023-05-01T00:53:17.499Z,42.95
2023-05-01T00:56:21.569Z,42.97
2023-05-01T00:59:25.712Z,43.08
2023-05-01T01:02:28.611Z,42.95
2023-05-01T01:05:33.806Z,42.87
2023-05-01T01:08:40.401Z,42.83
2023-05-01T01:11:48.560Z,42.92
2023-05-01T01:14:56.944Z,42.75
2023-05-01T01:18:05.429Z,42.77
2023-05-01T01:21:10.006Z,42.79
2023-05-01T01:24:30.951Z,42.81
2023-05-01T01:27:39.316Z,42.73
2023-05-01T01:31:00.167Z,42.78
2023-05-01T01:34:10.898Z,42.83
2023-05-01T01:37:17.410Z,42.89
2023-05-01T01:40:23.627Z,42.90
2023-05-01T01:43:27.202Z,42.86
2023-05-01T01:46:30.096Z,42.97
2023-05-01T01:49:36.158Z,42.98
2023-05-01T01:52:40.016Z,43.06
2023-05-01T01:55:44.710Z,43.24
2023-05-01T01:58:48.414Z,43.37
2023-05-01T02:01:52.269Z,43.40
2023-05-01T02:04:57.897Z,43.28
2023-05-01T02:08:01.650Z,43.41
2023-05-01T02:11:04.788Z,43.50
2023-05-01T02:14:08.959Z,43.21
2023-05-01T02:17:11.848Z,43.33
2023-05-01T02:20:16.776Z,43.20
2023-05-01T02:23:19.615Z,43.17
2023-05-01T02:26:24.238Z,43.10
2023-05-01T02:29:28.155Z,43.15
2023-05-01T02:32:32.086Z,43.04
2023-05-01T02:35:41.818Z,43.03
2023-05-01T02:38:47.131Z,43.18
2023-05-01T02:41:50.101Z,43.08
2023-05-01T02:44:55.346Z,43.08
2023-05-01T02:48:00.600Z,43.05
2023-05-01T02:51:05.547Z,43.08
2023-05-01T02:54:09.192Z,43.01
2023-05-01T02:57:12.489Z,42.94
2023-05-01T03:00:15.300Z,43.03
2023-05-01T03:03:18.293Z,43.10
2023-05-01T03:06:22.533Z,43.02
2023-05-01T03:09:25.382Z,43.04
2023-05-01T03:12:28.143Z,42.96
2023-05-01T03:15:30.941Z,42.99
2023-05-01T03:18:33.708Z,42.94
2023-05-01T03:21:37.905Z,42.86
2023-05-01T03:24:40.722Z,42.85
2023-05-01T03:27:43.466Z,42.98
2023-05-01T03:30:46.232Z,42.76
2023-05-01T03:33:49.106Z,42.71
2023-05-01T03:36:53.281Z,42.71
2023-05-01T03:39:56.380Z,42.84
2023-05-01T03:42:59.371Z,42.72
2023-05-01T03:46:02.348Z,42.81
2023-05-01T03:49:05.259Z,42.62
2023-05-01T03:52:09.434Z,42.75
2023-05-01T03:55:12.324Z,42.77
2023-05-01T03:58:15.109Z,42.80
2023-05-01T04:01:17.843Z,42.68
2023-05-01T04:04:20.639Z,42.71
2023-05-01T04:07:25.421Z,42.77
2023-05-01T04:10:28.273Z,42.81
2023-05-01T04:13:31.126Z,42.82
2023-05-01T04:16:34.126Z,42.81
2023-05-01T04:19:37.990Z,42.89
2023-05-01T04:22:42.428Z,42.87
2023-05-01T04:25:46.154Z,42.86
2023-05-01T04:28:48.944Z,42.85
2023-05-01T04:31:51.715Z,42.91
2023-05-01T04:34:54.610Z,42.72
2023-05-01T04:37:58.706Z,42.86
2023-05-01T04:41:01.501Z,42.58
2023-05-01T04:44:04.261Z,42.74
2023-05-01T04:47:07.444Z,42.76
2023-05-01T04:50:10.933Z,42.65
2023-05-01T04:53:15.429Z,42.64
2023-05-01T04:56:18.145Z,42.77
2023-05-01T04:59:20.940Z,42.63
2023-05-01T05:02:23.849Z,42.79
2023-05-01T05:05:26.627Z,42.86
2023-05-01T05:08:31.487Z,42.88
2023-05-01T05:11:34.235Z,42.87
2023-05-01T05:14:37.005Z,42.67
2023-05-01T05:17:39.846Z,42.74
2023-05-01T05:20:42.630Z,42.81
2023-05-01T05:23:46.892Z,42.83
2023-05-01T05:26:49.721Z,42.85
2023-05-01T05:29:52.537Z,42.82
2023-05-01T05:32:55.399Z,42.67
2023-05-01T05:35:59.689Z,42.84
2023-05-01T05:39:04.165Z,42.77
2023-05-01T05:42:06.881Z,43.09
2023-05-01T05:45:10.386Z,42.93
2023-05-01T05:48:13.247Z,42.73
2023-05-01T05:51:16.118Z,42.95
2023-05-01T05:54:20.474Z,42.77
2023-05-01T05:57:23.187Z,42.79
2023-05-01T06:00:26.007Z,42.45
2023-05-01T06:03:28.900Z,42.59
2023-05-01T06:06:32.263Z,42.93
2023-05-01T06:09:36.629Z,43.00
2023-05-01T06:12:41.182Z,42.89
2023-05-01T06:15:51.221Z,42.76
2023-05-01T06:18:54.013Z,42.77
2023-05-01T06:21:56.767Z,42.71
2023-05-01T06:25:00.930Z,42.92
2023-05-01T06:28:04.058Z,42.61
2023-05-01T06:31:07.305Z,42.69
2023-05-01T06:34:10.077Z,42.63
2023-05-01T06:37:13.037Z,42.57
2023-05-01T06:40:17.233Z,42.82
2023-05-01T06:43:20.078Z,42.56
2023-05-01T06:46:22.820Z,42.64
2023-05-01T06:49:25.649Z,42.64
2023-05-01T06:52:28.844Z,42.62
2023-05-01T06:55:34.563Z,42.58
2023-05-01T06:58:38.670Z,42.54
2023-05-01T07:01:41.791Z,42.63
2023-05-01T07:04:45.487Z,42.76
2023-05-01T07:07:57.944Z,42.77
2023-05-01T07:11:04.896Z,42.60
2023-05-01T07:14:07.729Z,42.65
2023-05-01T07:17:10.553Z,42.69
2023-05-01T07:20:13.955Z,42.76
2023-05-01T07:23:16.881Z,42.50
2023-05-01T07:26:21.340Z,42.65
2023-05-01T07:29:24.118Z,42.62
2023-05-01T07:32:26.973Z,42.55
2023-05-01T07:35:29.780Z,42.59
2023-05-01T07:38:32.636Z,42.57
2023-05-01T07:41:36.814Z,42.65
2023-05-01T07:44:39.543Z,42.57
2023-05-01T07:47:42.369Z,42.60
2023-05-01T07:50:45.100Z,42.64
2023-05-01T07:53:49.010Z,42.66
2023-05-01T07:56:53.207Z,42.74
2023-05-01T07:59:56.888Z,42.44
2023-05-01T08:03:00.014Z,42.50
2023-05-01T08:06:02.964Z,42.59
2023-05-01T08:09:05.959Z,42.72
2023-05-01T08:12:10.156Z,42.56
2023-05-01T08:15:12.995Z,42.56
2023-05-01T08:18:20.485Z,42.48
2023-05-01T08:21:23.652Z,42.55
2023-05-01T08:24:26.412Z,42.73
2023-05-01T08:27:30.519Z,42.52
2023-05-01T08:30:33.252Z,42.64
2023-05-01T08:33:36.014Z,42.67
2023-05-01T08:36:38.831Z,42.81
2023-05-01T08:39:41.611Z,42.89
2023-05-01T08:42:45.895Z,42.97
2023-05-01T08:45:48.837Z,42.78
2023-05-01T08:48:53.046Z,42.70
2023-05-01T08:51:57.079Z,42.86
2023-05-01T08:55:01.588Z,42.81
2023-05-01T08:58:07.941Z,42.76
2023-05-01T09:01:10.819Z,42.92
2023-05-01T09:04:14.319Z,42.93
2023-05-01T09:07:17.448Z,42.92
2023-05-01T09:10:20.450Z,43.04
2023-05-01T09:13:26.470Z,42.84
2023-05-01T09:16:30.415Z,42.77
2023-05-01T09:19:33.425Z,42.72
2023-05-01T09:22:38.974Z,42.86
2023-05-01T09:25:44.516Z,42.65
2023-05-01T09:28:49.376Z,42.49
2023-05-01T09:31:52.156Z,42.45
2023-05-01T09:34:55.319Z,42.59
2023-05-01T09:37:58.143Z,42.63
2023-05-01T09:41:05.320Z,42.43
2023-05-01T09:44:19.340Z,42.55
2023-05-01T09:47:23.371Z,42.65
2023-05-01T09:50:35.694Z,42.55
2023-05-01T09:53:39.196Z,42.78
2023-05-01T09:56:47.804Z,42.54
2023-05-01T10:00:08.471Z,42.38
2023-05-01T10:03:14.874Z,42.44
2023-05-01T10:06:28.543Z,43.45
2023-05-01T10:09:32.469Z,43.06
2023-05-01T10:12:37.150Z,42.94
2023-05-01T10:15:41.365Z,43.14
2023-05-01T10:18:45.600Z,42.72
2023-05-01T10:21:48.437Z,42.90
2023-05-01T10:24:52.281Z,42.89
2023-05-01T10:27:55.530Z,42.81
2023-05-01T10:31:01.890Z,42.81
2023-05-01T10:34:04.880Z,42.87
2023-05-01T10:37:12.956Z,42.86
2023-05-01T10:40:34.061Z,42.68
2023-05-01T10:43:36.908Z,42.63
2023-05-01T10:46:41.097Z,42.89
2023-05-01T10:50:02.521Z,42.57
2023-05-01T10:53:18.210Z,42.55
2023-05-01T10:56:39.921Z,42.11
2023-05-01T10:59:57.542Z,42.32
2023-05-01T11:03:19.100Z,42.44
2023-05-01T11:06:23.376Z,42.59
2023-05-01T11:09:41.233Z,42.22
2023-05-01T11:12:53.641Z,42.36
2023-05-01T11:15:56.990Z,42.37
2023-05-01T11:18:59.745Z,42.21
2023-05-01T11:22:13.060Z,42.14
2023-05-01T11:25:19.310Z,42.52
2023-05-01T11:28:25.242Z,42.21
2023-05-01T11:31:29.213Z,42.06
2023-05-01T11:34:36.930Z,42.08
2023-05-01T11:37:44.909Z,42.13
2023-05-01T11:40:55.556Z,42.58
2023-05-01T11:43:59.286Z,42.27
2023-05-01T11:47:02.287Z,42.51
2023-05-01T11:50:05.504Z,42.13
2023-05-01T11:53:12.912Z,41.92
2023-05-01T11:56:26.512Z,42.23
2023-05-01T11:59:30.677Z,42.16
2023-05-01T12:02:33.547Z,42.19
2023-05-01T12:05:37.695Z,41.91
2023-05-01T12:08:45.399Z,41.92
2023-05-01T12:11:51.194Z,42.00
2023-05-01T12:14:55.981Z,41.90
2023-05-01T12:17:59.553Z,42.11
2023-05-01T12:21:02.384Z,41.71
2023-05-01T12:24:10.828Z,41.77
2023-05-01T12:30:33.818Z,41.66
2023-05-01T12:33:36.561Z,41.65
2023-05-01T12:36:39.498Z,42.01
2023-05-01T12:39:44.977Z,41.69
2023-05-01T12:42:55.074Z,41.75
2023-05-01T12:45:57.958Z,41.73
2023-05-01T12:49:00.723Z,41.84
2023-05-01T12:52:04.930Z,42.17
2023-05-01T12:55:09.699Z,42.63
2023-05-01T12:58:12.518Z,42.54
2023-05-01T13:01:24.430Z,42.45
2023-05-01T13:04:27.538Z,42.61
2023-05-01T13:07:30.349Z,42.56
2023-05-01T13:10:34.656Z,43.03
2023-05-01T13:13:37.888Z,42.42
2023-05-01T13:16:47.390Z,42.69
2023-05-01T13:19:54.657Z,42.59
2023-05-01T13:22:57.524Z,42.84
2023-05-01T13:26:01.882Z,42.67
2023-05-01T13:29:05.940Z,42.71
2023-05-01T13:32:11.873Z,42.71
2023-05-01T13:35:22.733Z,42.41
2023-05-01T13:38:25.482Z,42.82
2023-05-01T13:41:30.073Z,42.23
2023-05-01T13:44:32.861Z,42.11
2023-05-01T13:47:40.230Z,42.00
2023-05-01T13:50:43.262Z,41.35
2023-05-01T13:53:46.055Z,41.74
2023-05-01T13:56:50.221Z,41.40
2023-05-01T13:59:52.954Z,41.60
2023-05-01T14:02:56.669Z,41.84
2023-05-01T14:05:59.615Z,41.15
2023-05-01T14:09:02.351Z,41.11
2023-05-01T14:12:06.654Z,41.15
2023-05-01T14:15:10.434Z,40.89
2023-05-01T14:18:16.710Z,40.87
2023-05-01T14:21:19.725Z,40.88
2023-05-01T14:24:22.895Z,41.42
2023-05-01T14:27:27.030Z,41.61
2023-05-01T14:30:33.459Z,41.30
2023-05-01T14:33:42.543Z,41.52
2023-05-01T14:36:45.355Z,41.44
2023-05-01T14:39:48.153Z,41.20
2023-05-01T14:42:52.294Z,40.93
2023-05-01T14:45:56.273Z,41.12
2023-05-01T14:48:59.509Z,41.14
2023-05-01T14:52:02.375Z,41.41
2023-05-01T14:55:05.861Z,41.43
2023-05-01T14:58:10.021Z,41.30
2023-05-01T15:01:12.789Z,41.48
2023-05-01T15:04:15.728Z,41.43
2023-05-01T15:07:18.769Z,41.49
2023-05-01T15:10:23.652Z,41.58
2023-05-01T15:13:27.830Z,41.62
2023-05-01T15:16:31.150Z,41.79
2023-05-01T15:19:33.933Z,41.61
2023-05-01T15:22:37.585Z,41.75
2023-05-01T15:25:43.312Z,41.58
2023-05-01T15:28:47.408Z,41.79
2023-05-01T15:31:58.323Z,42.07
2023-05-01T15:35:07.875Z,41.62
2023-05-01T15:38:10.613Z,41.85
2023-05-01T15:41:13.397Z,41.68
2023-05-01T15:44:17.552Z,41.69
2023-05-01T15:47:20.362Z,41.58
2023-05-01T15:50:23.728Z,41.52
2023-05-01T15:53:26.491Z,41.54
2023-05-01T15:56:29.285Z,41.44
2023-05-01T15:59:33.389Z,41.56
2023-05-01T16:02:36.306Z,41.55
2023-05-01T16:05:40.701Z,41.56
2023-05-01T16:08:43.677Z,41.90
2023-05-01T16:11:46.475Z,41.69
2023-05-01T16:14:50.662Z,41.65
2023-05-01T16:17:55.105Z,41.88
2023-05-01T16:20:58.148Z,41.78
2023-05-01T16:24:02.383Z,41.75
2023-05-01T16:27:05.481Z,41.76
2023-05-01T16:30:10.563Z,41.91
2023-05-01T16:33:18.443Z,41.80
2023-05-01T16:36:22.393Z,41.87
2023-05-01T16:39:25.342Z,41.92
2023-05-01T16:42:28.167Z,41.79
2023-05-01T16:45:32.685Z,41.83
2023-05-01T16:48:35.821Z,41.86
2023-05-01T16:51:38.735Z,41.72
2023-05-01T16:54:41.642Z,41.83
2023-05-01T16:57:44.673Z,41.97
2023-05-01T17:00:48.797Z,42.14
2023-05-01T17:03:51.580Z,42.24
2023-05-01T17:06:56.220Z,41.79
2023-05-01T17:09:59.453Z,42.07
2023-05-01T17:13:02.369Z,42.05
2023-05-01T17:16:06.735Z,42.07
2023-05-01T17:19:09.969Z,41.94
2023-05-01T17:22:12.932Z,42.05
2023-05-01T17:25:15.728Z,42.24
2023-05-01T17:28:19.035Z,42.14
2023-05-01T17:31:23.185Z,42.08
2023-05-01T17:34:25.989Z,42.29
2023-05-01T17:37:28.746Z,42.16
2023-05-01T17:40:32.403Z,42.33
2023-05-01T17:43:35.186Z,42.44
2023-05-01T17:46:39.469Z,42.57
2023-05-01T17:49:42.274Z,41.95
2023-05-01T17:52:45.583Z,42.12
2023-05-01T17:55:48.345Z,42.01
2023-05-01T17:58:51.286Z,41.94
2023-05-01T18:01:55.409Z,42.03
2023-05-01T18:04:58.488Z,42.11
2023-05-01T18:08:01.472Z,41.93
2023-05-01T18:11:04.755Z,42.00
2023-05-01T18:14:07.552Z,42.14
2023-05-01T18:17:11.972Z,42.26
2023-05-01T18:20:14.797Z,42.26
2023-05-01T18:23:18.259Z,42.26
2023-05-01T18:26:21.040Z,42.36
2023-05-01T18:29:23.894Z,42.42
2023-05-01T18:32:43.239Z,42.16
2023-05-01T18:35:49.502Z,42.23
2023-05-01T18:38:52.430Z,42.45
2023-05-01T18:41:55.581Z,42.35
2023-05-01T18:44:58.346Z,42.05
2023-05-01T18:48:03.229Z,42.39
2023-05-01T18:51:09.372Z,42.32
2023-05-01T18:54:12.473Z,42.23
2023-05-01T18:57:15.198Z,42.25
2023-05-01T19:00:20.478Z,42.38
2023-05-01T19:03:24.639Z,42.51
2023-05-01T19:06:27.605Z,42.31
2023-05-01T19:09:30.443Z,42.57
2023-05-01T19:12:33.294Z,42.57
2023-05-01T19:15:36.407Z,42.45
2023-05-01T19:18:40.539Z,42.53
2023-05-01T19:21:43.336Z,42.32
2023-05-01T19:24:46.156Z,42.43
2023-05-01T19:27:49.143Z,42.36
2023-05-01T19:30:51.940Z,42.63
2023-05-01T19:33:56.329Z,42.75
2023-05-01T19:37:00.340Z,42.49
2023-05-01T19:40:03.217Z,42.58
2023-05-01T19:43:06.099Z,42.40
2023-05-01T19:46:11.863Z,42.21
2023-05-01T19:49:16.074Z,42.06
2023-05-01T19:52:19.656Z,42.48
2023-05-01T19:55:22.510Z,42.45
2023-05-01T19:58:26.789Z,42.30
